Time;durP1;ratioP1;P1;durP2;ratioP2;P2;SDS_P1;SDS_P2;PMS_P1;PMS_P2;Temp;Humidity;BMP_temperature;BMP_pressure;BME280_temperature;BME280_humidity;BME280_pressure;Samples;Min_cycle;Max_cycle;Signal;HPM_P1;HPM_P2
2022/09/17 00:00:59;;;;;;;27.25;3.03;;;;;;;12.18;78.93;101352.03;5053671;28;20037;-78
2022/09/17 00:03:26;;;;;;;25.13;2.83;;;;;;;12.27;77.70;101339.31;5054414;28;20021;-78
2022/09/17 00:06:03;;;;;;;17.35;2.30;;;;;;;12.28;77.84;101360.72;5033621;28;20061;-76
2022/09/17 00:08:29;;;;;;;13.95;2.45;;;;;;;12.30;74.27;101344.34;5049806;28;20030;-80
2022/09/17 00:10:54;;;;;;;27.15;2.38;;;;;;;12.38;72.98;101352.38;5042504;28;20092;-77
2022/09/17 00:13:20;;;;;;;29.55;2.45;;;;;;;12.39;73.50;101348.66;5036310;28;20040;-77
2022/09/17 00:15:46;;;;;;;38.28;3.83;;;;;;;12.44;73.99;101357.06;5054952;28;20982;-76
2022/09/17 00:18:12;;;;;;;34.72;3.92;;;;;;;12.46;74.73;101357.72;5052138;28;20041;-79
2022/09/17 00:20:47;;;;;;;40.50;3.35;;;;;;;12.58;76.08;101341.06;5042601;28;20056;-75
2022/09/17 00:23:13;;;;;;;41.10;3.47;;;;;;;12.62;77.09;101353.19;5042237;28;20088;-76
2022/09/17 00:25:39;;;;;;;34.92;2.97;;;;;;;12.68;77.56;101357.84;5045152;28;20032;-78
2022/09/17 00:28:05;;;;;;;41.10;3.15;;;;;;;12.75;77.56;101385.81;5045007;28;20056;-76
2022/09/17 00:30:30;;;;;;;65.35;5.60;;;;;;;12.79;80.70;101407.88;5024287;28;20033;-75
2022/09/17 00:32:57;;;;;;;47.63;4.85;;;;;;;12.50;83.99;101396.81;5038714;28;20049;-75
2022/09/17 00:35:25;;;;;;;26.40;3.55;;;;;;;12.21;85.71;101392.13;5041603;28;20041;-75
2022/09/17 00:37:50;;;;;;;45.38;4.53;;;;;;;12.02;87.22;101382.66;5045832;28;20030;-75
2022/09/17 00:40:16;;;;;;;40.15;3.25;;;;;;;11.82;88.86;101373.28;5045209;28;20168;-75
2022/09/17 00:42:42;;;;;;;42.85;3.58;;;;;;;11.67;90.47;101356.22;5051588;28;20034;-74
2022/09/17 00:45:08;;;;;;;47.83;3.22;;;;;;;11.55;91.68;101344.97;5056167;28;20052;-75
2022/09/17 00:48:08;;;;;;;43.65;2.72;;;;;;;11.50;93.75;101364.34;5020150;28;20030;-77
2022/09/17 00:50:38;;;;;;;38.70;3.15;;;;;;;11.46;95.16;101378.38;5003926;28;20030;-76
2022/09/17 00:53:07;;;;;;;62.05;4.35;;;;;;;11.41;96.28;101362.72;5028214;28;20033;-75
2022/09/17 00:55:58;;;;;;;39.78;3.63;;;;;;;11.30;96.41;101344.25;5027173;28;20029;-75
2022/09/17 00:58:25;;;;;;;53.15;2.78;;;;;;;11.25;95.42;101339.38;5033009;28;20025;-75
2022/09/17 01:00:50;;;;;;;41.40;2.53;;;;;;;11.29;94.82;101346.06;5032312;28;20061;-75
2022/09/17 01:03:15;;;;;;;54.17;3.20;;;;;;;11.29;92.90;101343.38;5049344;28;20048;-75
2022/09/17 01:06:19;;;;;;;46.92;2.85;;;;;;;11.41;91.33;101349.25;5042392;28;20030;-75
2022/09/17 01:09:05;;;;;;;41.95;2.80;;;;;;;11.41;90.22;101346.56;5018825;28;20125;-75
2022/09/17 01:11:51;;;;;;;36.10;3.83;;;;;;;11.40;90.22;101343.03;5028756;28;20028;-77
2022/09/17 01:14:35;;;;;;;27.45;2.92;;;;;;;11.47;89.33;101351.22;5017529;28;20029;-78
2022/09/17 01:17:29;;;;;;;45.40;3.13;;;;;;;11.52;89.19;101356.09;5034829;28;20017;-76
2022/09/17 01:20:14;;;;;;;31.35;2.53;;;;;;;11.60;88.26;101343.41;5014108;28;20033;-79
2022/09/17 01:22:50;;;;;;;29.25;3.17;;;;;;;11.73;84.21;101348.25;5028306;28;20022;-78
2022/09/17 01:25:28;;;;;;;29.50;3.50;;;;;;;11.83;82.14;101348.03;5054855;28;20010;-78
2022/09/17 01:28:13;;;;;;;42.47;3.17;;;;;;;11.86;82.95;101353.09;5041080;28;20027;-78
2022/09/17 01:30:38;;;;;;;37.78;4.15;;;;;;;11.92;80.90;101355.06;5025316;28;20029;-77
2022/09/17 01:33:29;;;;;;;27.45;2.40;;;;;;;11.97;78.57;101341.88;5019762;28;20029;-78
2022/09/17 01:36:03;;;;;;;41.00;2.22;;;;;;;12.00;78.02;101360.41;5016402;28;20052;-79
2022/09/17 01:38:33;;;;;;;24.60;2.25;;;;;;;12.02;77.68;101352.97;5016271;28;20396;-79
2022/09/17 01:41:17;;;;;;;31.70;3.35;;;;;;;12.13;77.31;101364.38;5016097;28;20026;-78
2022/09/17 01:43:47;;;;;;;40.47;3.80;;;;;;;12.18;76.52;101365.50;5014221;28;20021;-78
2022/09/17 01:46:25;;;;;;;29.17;2.10;;;;;;;12.20;77.07;101368.88;5015222;28;20130;-78
2022/09/17 01:48:53;;;;;;;33.60;2.28;;;;;;;12.12;77.47;101362.72;5013393;28;20034;-76
2022/09/17 01:51:21;;;;;;;32.20;2.53;;;;;;;12.07;77.52;101366.78;5017946;28;20017;-78
2022/09/17 01:53:52;;;;;;;37.92;3.63;;;;;;;12.07;77.18;101369.47;5016850;28;20025;-78
2022/09/17 01:56:23;;;;;;;37.60;3.35;;;;;;;12.11;77.36;101367.25;5017071;28;20382;-77
2022/09/17 01:58:55;;;;;;;33.13;2.72;;;;;;;12.15;76.75;101378.53;5016870;28;20030;-78
2022/09/17 02:01:21;;;;;;;34.63;2.83;;;;;;;12.18;76.10;101372.78;5016297;28;20026;-77
2022/09/17 02:03:53;;;;;;;27.30;2.58;;;;;;;12.22;75.17;101377.63;5034028;28;20036;-78
2022/09/17 02:08:57;;;;;;;23.38;2.35;;;;;;;12.25;71.31;101366.47;4991641;23;20058;-75
2022/09/17 02:11:22;;;;;;;20.13;2.67;;;;;;;12.25;71.01;101379.97;4993611;28;20406;-77
2022/09/17 02:14:07;;;;;;;18.30;1.63;;;;;;;12.28;69.93;101373.38;4961887;28;20038;-76
2022/09/17 02:16:34;;;;;;;32.88;2.45;;;;;;;12.34;70.10;101382.63;4979209;28;20049;-76
2022/09/17 02:19:15;;;;;;;40.70;2.55;;;;;;;12.36;70.02;101378.72;4995706;28;20133;-77
2022/09/17 02:21:43;;;;;;;21.13;2.30;;;;;;;12.40;70.24;101371.94;4980515;28;20037;-76
2022/09/17 02:24:24;;;;;;;30.63;1.83;;;;;;;12.44;70.16;101384.03;4978708;28;20045;-75
2022/09/17 02:26:59;;;;;;;23.13;2.33;;;;;;;12.42;71.19;101375.28;4978810;28;20447;-75
2022/09/17 02:29:30;;;;;;;44.53;2.75;;;;;;;12.40;70.57;101380.03;4977078;28;20038;-75
2022/09/17 02:31:56;;;;;;;28.30;2.30;;;;;;;12.42;71.19;101375.28;4978006;28;20542;-74
2022/09/17 02:34:24;;;;;;;26.35;2.42;;;;;;;12.45;70.12;101382.19;4994571;28;20030;-74
2022/09/17 02:36:50;;;;;;;28.55;2.97;;;;;;;12.50;69.27;101375.22;4994233;28;20121;-75
2022/09/17 02:39:16;;;;;;;30.05;2.80;;;;;;;12.52;68.79;101385.84;4994675;28;20530;-75
2022/09/17 02:41:56;;;;;;;27.88;2.55;;;;;;;12.55;68.42;101390.03;4994876;28;20192;-75
2022/09/17 02:44:31;;;;;;;28.17;2.10;;;;;;;12.55;68.24;101381.94;4977047;28;20109;-75
2022/09/17 02:47:30;;;;;;;42.67;3.25;;;;;;;12.57;67.87;101382.59;4975694;28;20096;-75
2022/09/17 02:50:09;;;;;;;30.13;1.98;;;;;;;12.59;68.91;101396.78;4984889;28;20034;-75
2022/09/17 02:52:56;;;;;;;20.02;2.17;;;;;;;12.47;70.31;101386.38;4994998;28;20151;-75
2022/09/17 02:55:28;;;;;;;16.98;1.80;;;;;;;12.48;68.54;101388.06;4977021;28;20027;-75
2022/09/17 02:58:05;;;;;;;27.80;2.13;;;;;;;12.44;68.95;101394.00;4977774;28;20030;-76
2022/09/17 03:00:31;;;;;;;27.13;2.25;;;;;;;12.44;68.82;101396.72;4976401;28;20430;-76
2022/09/17 03:03:00;;;;;;;30.55;2.55;;;;;;;12.40;68.86;101393.53;4976300;28;20027;-75
2022/09/17 03:05:27;;;;;;;22.02;2.10;;;;;;;12.42;69.49;101393.34;4993593;28;20120;-75
2022/09/17 03:07:58;;;;;;;27.50;2.55;;;;;;;12.44;67.87;101396.72;4975722;28;20046;-73
2022/09/17 03:10:23;;;;;;;26.80;2.55;;;;;;;12.39;69.17;101386.44;4976064;28;20169;-75
2022/09/17 03:12:48;;;;;;;25.23;2.03;;;;;;;12.37;67.21;101388.47;4976100;28;20113;-75
2022/09/17 03:15:14;;;;;;;19.92;1.40;;;;;;;12.42;66.80;101377.97;4992912;28;20050;-76
2022/09/17 03:17:39;;;;;;;25.08;1.80;;;;;;;12.42;66.50;101386.09;4993085;28;20061;-76
2022/09/17 03:20:05;;;;;;;20.33;1.65;;;;;;;12.46;66.91;101391.97;4992998;28;20107;-75
2022/09/17 03:22:30;;;;;;;17.85;1.45;;;;;;;12.42;66.80;101386.09;4993825;28;20034;-75
2022/09/17 03:24:56;;;;;;;23.73;1.73;;;;;;;12.40;66.65;101380.03;4959527;28;20026;-76
2022/09/17 03:27:21;;;;;;;17.75;1.70;;;;;;;12.37;66.53;101380.38;4994603;28;20367;-76
2022/09/17 03:29:47;;;;;;;19.13;1.60;;;;;;;12.34;64.54;101375.34;4994379;28;20045;-75
2022/09/17 03:32:12;;;;;;;16.23;1.27;;;;;;;12.33;64.87;101368.28;4993524;28;20031;-74
2022/09/17 03:34:37;;;;;;;23.27;1.95;;;;;;;12.32;64.72;101369.28;4993063;28;20033;-75
2022/09/17 03:37:03;;;;;;;27.10;1.38;;;;;;;12.32;65.67;101374.69;4993911;28;20026;-76
2022/09/17 03:39:28;;;;;;;22.00;1.95;;;;;;;12.37;65.58;101372.28;4994000;28;20049;-75
2022/09/17 03:41:54;;;;;;;16.67;2.33;;;;;;;12.41;66.99;101373.63;4978672;28;20037;-75
2022/09/17 03:44:21;;;;;;;13.95;1.63;;;;;;;12.49;66.80;101370.00;4993110;28;20050;-76
2022/09/17 03:46:48;;;;;;;22.27;1.67;;;;;;;12.51;66.75;101385.00;4993354;28;20486;-74
2022/09/17 03:49:13;;;;;;;20.35;1.50;;;;;;;12.59;66.70;101380.56;4977070;28;20030;-75
2022/09/17 03:51:39;;;;;;;16.02;1.65;;;;;;;12.64;66.67;101379.00;4975150;28;20033;-75
2022/09/17 03:54:04;;;;;;;21.83;2.35;;;;;;;12.64;67.32;101383.56;4993294;28;20158;-75
2022/09/17 03:56:29;;;;;;;26.08;2.60;;;;;;;12.62;67.18;101385.59;4993485;28;20110;-74
2022/09/17 03:58:59;;;;;;;20.80;1.95;;;;;;;12.62;66.59;101385.59;4993080;28;20402;-74
2022/09/17 04:01:25;;;;;;;26.27;2.70;;;;;;;12.68;64.95;101374.91;4976360;28;20026;-74
2022/09/17 04:03:50;;;;;;;13.45;1.40;;;;;;;12.70;64.70;101382.81;4976490;28;20026;-74
2022/09/17 04:06:16;;;;;;;22.63;2.00;;;;;;;12.66;64.80;101381.50;4959482;28;20393;-75
2022/09/17 04:08:42;;;;;;;17.42;1.60;;;;;;;12.66;64.90;101392.31;4978846;28;20439;-76
2022/09/17 04:11:08;;;;;;;21.55;1.52;;;;;;;12.61;64.74;101386.59;4998220;28;20045;-75
2022/09/17 04:13:33;;;;;;;19.70;1.45;;;;;;;12.65;64.17;101393.34;4978714;28;20038;-75
2022/09/17 04:15:58;;;;;;;18.48;1.30;;;;;;;12.64;63.23;101391.66;4996842;28;20429;-75
2022/09/17 04:18:24;;;;;;;10.88;1.40;;;;;;;12.67;63.78;101399.41;4991218;28;20030;-74
2022/09/17 04:20:50;;;;;;;18.10;1.48;;;;;;;12.68;64.38;101390.25;4973449;28;20035;-74
2022/09/17 04:23:15;;;;;;;17.08;1.60;;;;;;;12.68;64.07;101390.25;4995548;28;20027;-74
2022/09/17 04:25:41;;;;;;;18.17;1.65;;;;;;;12.74;63.67;101386.81;4994878;28;20034;-75
2022/09/17 04:28:06;;;;;;;20.60;2.92;;;;;;;12.75;64.20;101404.72;4995378;28;20152;-74
2022/09/17 04:30:32;;;;;;;31.98;2.35;;;;;;;12.87;65.24;101403.25;4996073;28;20026;-75
2022/09/17 04:32:57;;;;;;;14.80;1.40;;;;;;;12.93;66.28;101402.53;5013130;28;20033;-74
2022/09/17 04:35:22;;;;;;;16.92;1.50;;;;;;;12.86;66.12;101408.84;5001385;28;20049;-74
2022/09/17 04:37:55;;;;;;;26.77;2.28;;;;;;;12.78;66.13;101408.91;4994557;28;20066;-75
2022/09/17 04:40:21;;;;;;;21.33;2.00;;;;;;;12.67;66.21;101410.19;4994700;28;20381;-75
2022/09/17 04:42:47;;;;;;;25.63;2.47;;;;;;;12.56;66.34;101413.31;4975749;28;20061;-73
2022/09/17 04:45:13;;;;;;;24.30;1.63;;;;;;;12.55;67.47;101404.38;4966559;28;20054;-75
2022/09/17 04:47:38;;;;;;;19.80;1.52;;;;;;;12.44;67.83;101408.34;4959631;28;20058;-75
2022/09/17 04:50:04;;;;;;;11.48;1.30;;;;;;;12.36;67.94;101413.81;4984902;28;20377;-74
2022/09/17 04:52:29;;;;;;;15.13;1.08;;;;;;;12.32;66.61;101406.25;4989308;28;20045;-74
2022/09/17 04:54:55;;;;;;;17.27;1.42;;;;;;;12.27;66.39;101414.91;4994421;28;20034;-73
2022/09/17 04:57:22;;;;;;;14.60;1.35;;;;;;;12.24;66.85;101407.13;4993896;28;20125;-73
2022/09/17 04:59:47;;;;;;;30.63;3.80;;;;;;;12.21;67.14;101404.78;4993642;28;20093;-73
2022/09/17 05:02:13;;;;;;;27.33;2.55;;;;;;;12.18;67.71;101405.16;4999587;28;20030;-75
2022/09/17 05:04:38;;;;;;;25.88;2.28;;;;;;;12.16;68.79;101404.50;4969266;28;20069;-73
2022/09/17 05:07:04;;;;;;;18.23;1.52;;;;;;;12.14;69.62;101404.69;4993959;28;20062;-74
2022/09/17 05:09:29;;;;;;;13.40;1.20;;;;;;;12.19;69.67;101401.44;4991835;28;20035;-75
2022/09/17 05:11:54;;;;;;;17.55;2.47;;;;;;;12.24;70.14;101393.63;4978644;28;20117;-74
2022/09/17 05:14:20;;;;;;;18.83;2.55;;;;;;;12.24;70.34;101409.81;4994144;28;20761;-75
2022/09/17 05:16:45;;;;;;;25.30;2.10;;;;;;;12.27;70.68;101426.53;4982811;28;20102;-74
2022/09/17 05:19:11;;;;;;;15.52;1.40;;;;;;;12.30;68.14;101420.75;4979251;28;20033;-75
2022/09/17 05:21:36;;;;;;;19.80;1.52;;;;;;;12.29;66.57;101413.66;4982099;28;20042;-75
2022/09/17 05:24:02;;;;;;;16.25;2.70;;;;;;;12.23;67.11;101416.25;4958225;28;20057;-75
2022/09/17 05:26:28;;;;;;;14.30;1.40;;;;;;;12.13;68.54;101415.66;4976529;28;20125;-75
2022/09/17 05:28:53;;;;;;;16.38;1.40;;;;;;;12.04;69.97;101418.41;4979176;28;20170;-74
2022/09/17 05:31:19;;;;;;;20.88;1.20;;;;;;;12.01;69.49;101407.13;4993277;28;20105;-74
2022/09/17 05:33:44;;;;;;;20.48;1.58;;;;;;;12.03;69.64;101407.75;4977761;28;20459;-74
2022/09/17 05:36:10;;;;;;;20.30;1.50;;;;;;;12.00;70.32;101408.97;4976399;28;20109;-74
2022/09/17 05:38:35;;;;;;;23.45;2.13;;;;;;;11.99;70.87;101406.47;4994351;28;20482;-75
2022/09/17 05:41:05;;;;;;;31.83;1.88;;;;;;;11.97;71.96;101409.31;4995290;28;20030;-75
2022/09/17 05:43:30;;;;;;;18.42;2.15;;;;;;;11.96;71.26;101402.25;4978718;28;20031;-74
2022/09/17 05:46:02;;;;;;;15.52;1.58;;;;;;;11.98;69.60;101400.22;4994777;28;20026;-74
2022/09/17 05:48:28;;;;;;;22.13;1.70;;;;;;;12.12;67.52;101413.97;4995002;28;20084;-75
2022/09/17 05:50:54;;;;;;;11.75;1.83;;;;;;;12.32;67.65;101407.06;4997359;28;20450;-76
2022/09/17 05:53:20;;;;;;;18.48;2.35;;;;;;;12.54;68.23;101423.47;4979310;28;20069;-74
2022/09/17 05:55:45;;;;;;;15.75;1.33;;;;;;;12.61;70.61;101427.09;4984076;28;20023;-74
2022/09/17 05:58:11;;;;;;;20.75;1.38;;;;;;;12.43;73.75;101444.47;4994021;28;20113;-75
2022/09/17 06:00:36;;;;;;;9.38;1.40;;;;;;;12.21;75.91;101431.78;4995815;28;20390;-75
2022/09/17 06:03:02;;;;;;;20.25;1.48;;;;;;;11.90;76.46;101435.34;4995866;28;20037;-75
2022/09/17 06:05:27;;;;;;;14.80;1.50;;;;;;;11.73;77.09;101433.69;4995303;28;20066;-75
2022/09/17 06:07:52;;;;;;;17.20;1.65;;;;;;;11.62;77.77;101438.44;4995717;28;20054;-74
2022/09/17 06:10:18;;;;;;;16.17;2.03;;;;;;;11.56;78.87;101443.72;4994865;28;20061;-75
2022/09/17 06:12:43;;;;;;;21.73;1.52;;;;;;;11.55;78.71;101432.06;4976980;28;20738;-75
2022/09/17 06:15:13;;;;;;;17.13;2.10;;;;;;;11.58;77.45;101431.72;4975832;28;20065;-74
2022/09/17 06:17:39;;;;;;;9.50;0.93;;;;;;;11.62;75.52;101433.06;4995790;28;20084;-73
2022/09/17 06:20:05;;;;;;;12.20;2.35;;;;;;;11.77;73.36;101445.78;4994524;28;20032;-74
2022/09/17 06:22:30;;;;;;;15.95;1.20;;;;;;;11.86;73.04;101442.09;4995194;28;20045;-74
2022/09/17 06:24:55;;;;;;;11.00;1.17;;;;;;;12.05;72.52;101448.91;4992961;28;20038;-74
2022/09/17 06:27:21;;;;;;;18.85;1.88;;;;;;;12.24;72.70;101439.50;4995609;28;20059;-74
2022/09/17 06:29:46;;;;;;;14.80;1.30;;;;;;;12.35;72.53;101444.53;4994583;28;20027;-74
2022/09/17 06:32:14;;;;;;;16.38;2.05;;;;;;;12.43;71.76;101438.22;4995439;28;20035;-73
2022/09/17 06:34:40;;;;;;;36.00;1.95;;;;;;;12.53;70.70;101446.91;4995228;28;20110;-75
2022/09/17 06:37:05;;;;;;;17.77;1.38;;;;;;;12.65;70.32;101463.53;4976878;28;20049;-75
2022/09/17 06:39:30;;;;;;;25.92;1.48;;;;;;;12.74;71.21;101462.44;4995825;28;20065;-72
2022/09/17 06:41:56;;;;;;;31.58;2.00;;;;;;;12.75;72.34;101447.94;4994590;28;20038;-72
2022/09/17 06:44:21;;;;;;;13.88;1.65;;;;;;;12.72;72.81;101451.00;4994666;28;20053;-72
2022/09/17 06:46:49;;;;;;;24.15;2.17;;;;;;;12.85;73.91;101455.78;4994943;28;20031;-73
2022/09/17 06:49:16;;;;;;;22.35;2.40;;;;;;;13.07;74.47;101456.78;4994301;28;20153;-73
2022/09/17 06:51:42;;;;;;;25.20;2.22;;;;;;;13.48;74.36;101461.78;4993896;28;20420;-72
2022/09/17 06:54:07;;;;;;;22.15;1.88;;;;;;;13.91;73.55;101461.97;4993927;28;20034;-74
2022/09/17 06:56:33;;;;;;;20.70;2.60;;;;;;;14.74;69.93;101451.66;4995173;28;20343;-73
2022/09/17 06:58:58;;;;;;;24.95;2.13;;;;;;;14.79;65.21;101451.91;4994474;28;20096;-74
2022/09/17 07:01:24;;;;;;;23.23;2.22;;;;;;;14.51;64.63;101466.22;4977538;28;20050;-73
2022/09/17 07:03:49;;;;;;;20.02;1.98;;;;;;;14.12;62.75;101464.72;4995040;28;20038;-73
2022/09/17 07:06:14;;;;;;;34.65;3.67;;;;;;;14.04;63.04;101457.56;4994750;28;20060;-74
2022/09/17 07:08:40;;;;;;;12.60;1.38;;;;;;;13.77;61.77;101456.38;4996651;28;20485;-72
2022/09/17 07:11:06;;;;;;;19.35;1.60;;;;;;;13.55;60.96;101454.63;4996110;28;20029;-73
2022/09/17 07:13:32;;;;;;;11.27;1.42;;;;;;;13.49;60.08;101463.47;4995382;28;20375;-72
2022/09/17 07:15:59;;;;;;;9.02;1.40;;;;;;;13.69;61.71;101461.91;4994947;28;20022;-73
2022/09/17 07:18:25;;;;;;;13.38;1.20;;;;;;;14.84;60.64;101463.00;4994550;28;20034;-73
2022/09/17 07:20:58;;;;;;;13.20;1.27;;;;;;;15.83;55.43;101462.88;4977986;28;20420;-73
2022/09/17 07:23:25;;;;;;;10.90;1.33;;;;;;;16.58;53.02;101463.72;4994844;28;20030;-74
2022/09/17 07:25:55;;;;;;;15.87;1.37;;;;;;;17.63;50.22;101473.97;4994336;28;20130;-74
2022/09/17 07:28:21;;;;;;;10.73;1.35;;;;;;;18.71;47.21;101459.66;4978193;28;20037;-74
2022/09/17 07:30:47;;;;;;;8.15;1.00;;;;;;;19.80;43.46;101474.66;4994580;28;20026;-73
2022/09/17 07:33:14;;;;;;;14.20;1.23;;;;;;;19.73;42.08;101473.88;4994381;28;20548;-73
2022/09/17 07:35:39;;;;;;;5.18;1.40;;;;;;;18.99;44.07;101481.91;4996091;28;20080;-73
2022/09/17 07:38:04;;;;;;;14.90;1.90;;;;;;;18.74;47.01;101483.75;4995305;28;20030;-73
2022/09/17 07:40:30;;;;;;;15.93;2.17;;;;;;;18.95;49.56;101488.88;4994593;28;20037;-73
2022/09/17 07:42:58;;;;;;;15.88;1.30;;;;;;;19.70;48.75;101486.09;4996290;28;20037;-73
2022/09/17 07:45:23;;;;;;;14.18;1.55;;;;;;;19.77;46.54;101488.75;4997150;28;20419;-74
2022/09/17 07:47:49;;;;;;;10.07;1.40;;;;;;;19.00;47.88;101507.31;4998592;28;20030;-74
2022/09/17 07:50:15;;;;;;;13.55;1.23;;;;;;;17.72;52.59;101491.75;4997045;28;20458;-74
2022/09/17 07:52:47;;;;;;;8.85;1.27;;;;;;;16.69;55.89;101478.59;4993632;28;20560;-74
2022/09/17 07:55:14;;;;;;;7.15;1.25;;;;;;;16.08;58.34;101486.78;4995167;28;20077;-74
2022/09/17 07:57:39;;;;;;;7.72;1.00;;;;;;;15.35;60.26;101492.63;4995485;28;20026;-74
2022/09/17 08:00:05;;;;;;;10.23;0.90;;;;;;;15.12;62.72;101482.84;4991756;28;20046;-74
2022/09/17 08:02:31;;;;;;;6.07;1.13;;;;;;;15.63;63.91;101483.59;4992808;28;20034;-74
2022/09/17 08:04:56;;;;;;;9.13;1.10;;;;;;;16.66;59.13;101479.00;4992421;28;20093;-74
2022/09/17 08:07:21;;;;;;;9.18;1.75;;;;;;;17.36;56.44;101478.66;4992486;28;20042;-75
2022/09/17 08:09:47;;;;;;;10.80;0.90;;;;;;;18.29;55.94;101472.91;4993477;28;20026;-74
2022/09/17 08:12:12;;;;;;;12.13;1.40;;;;;;;19.73;52.03;101480.19;4993724;28;20026;-74
2022/09/17 08:14:37;;;;;;;19.52;2.30;;;;;;;20.71;50.13;101497.44;4993107;28;20102;-74
2022/09/17 08:17:06;;;;;;;10.90;1.67;;;;;;;19.82;51.78;101483.44;5012011;28;20018;-75
2022/09/17 08:19:31;;;;;;;19.73;2.58;;;;;;;18.32;54.84;101494.28;5017098;28;20050;-77
2022/09/17 08:21:57;;;;;;;13.32;1.60;;;;;;;17.22;57.98;101484.09;5016536;28;20018;-76
2022/09/17 08:24:22;;;;;;;14.82;1.60;;;;;;;16.22;61.82;101483.09;5016614;28;20086;-76
2022/09/17 08:26:47;;;;;;;16.15;1.50;;;;;;;15.55;63.06;101480.00;5011972;28;20110;-73
2022/09/17 08:29:13;;;;;;;15.98;1.60;;;;;;;16.08;64.77;101475.91;5000851;28;20023;-75
2022/09/17 08:31:39;;;;;;;16.23;1.52;;;;;;;17.64;58.05;101487.38;4993963;28;20034;-74
2022/09/17 08:34:08;;;;;;;6.53;0.77;;;;;;;18.75;53.96;101489.03;4979438;28;20141;-74
2022/09/17 08:36:33;;;;;;;14.18;1.23;;;;;;;19.78;52.12;101487.69;4995752;28;20030;-74
2022/09/17 08:38:59;;;;;;;15.88;1.08;;;;;;;20.67;47.62;101492.66;4997476;28;20028;-74
2022/09/17 08:41:27;;;;;;;5.00;1.08;;;;;;;21.61;44.48;101485.41;4996309;28;20097;-72
2022/09/17 08:44:18;;;;;;;;;;;;;;;21.01;45.74;101497.41;4996634;28;20037;-73
2022/09/17 08:46:51;;;;;;;10.40;1.20;;;;;;;19.47;49.16;101492.19;4994253;28;19921;-73
2022/09/17 08:49:33;;;;;;;17.45;1.88;;;;;;;18.83;51.21;101507.00;5000369;28;20117;-74
2022/09/17 08:52:17;;;;;;;14.18;1.35;;;;;;;18.05;52.67;101499.84;4975701;28;20101;-74
2022/09/17 08:54:48;;;;;;;9.65;0.70;;;;;;;18.84;53.37;101504.06;4997736;28;20092;-73
2022/09/17 08:57:43;;;;;;;15.85;1.42;;;;;;;19.65;50.38;101504.19;5001207;28;20030;-74
2022/09/17 09:00:15;;;;;;;7.15;0.90;;;;;;;20.46;47.86;101491.25;5001623;28;20037;-72
2022/09/17 09:03:19;;;;;;;5.20;1.00;;;;;;;19.92;47.76;101500.13;4966999;28;20040;-73
2022/09/17 09:05:46;;;;;;;6.68;0.80;;;;;;;19.36;47.91;101505.75;4999705;28;20058;-72
2022/09/17 09:08:11;;;;;;;6.38;1.00;;;;;;;18.87;50.00;101508.22;4978478;28;20050;-71
2022/09/17 09:10:54;;;;;;;6.95;1.20;;;;;;;18.85;51.07;101510.34;5000937;28;20655;-73
2022/09/17 09:13:21;;;;;;;6.85;0.73;;;;;;;19.02;50.14;101497.84;5003111;28;20038;-74
2022/09/17 09:15:53;;;;;;;12.65;1.75;;;;;;;18.98;49.39;101502.06;4984221;28;20026;-74
2022/09/17 09:18:24;;;;;;;13.02;1.52;;;;;;;18.95;50.48;101488.88;5002255;28;20030;-75
2022/09/17 09:20:54;;;;;;;10.60;1.20;;;;;;;18.43;51.35;101513.50;4983519;28;20419;-74
2022/09/17 09:23:32;;;;;;;11.20;2.22;;;;;;;17.62;53.14;101508.53;4996773;28;20100;-74
2022/09/17 09:26:15;;;;;;;9.73;0.93;;;;;;;16.63;54.56;101503.88;4977642;28;20101;-74
2022/09/17 09:29:02;;;;;;;13.07;1.17;;;;;;;15.94;57.93;101503.00;5002408;28;20053;-75
2022/09/17 09:31:40;;;;;;;10.13;1.00;;;;;;;15.78;59.84;101509.63;4997662;28;20097;-74
2022/09/17 09:34:05;;;;;;;10.68;0.98;;;;;;;16.06;62.35;101499.72;4978381;28;20359;-74
2022/09/17 09:36:32;;;;;;;11.68;2.17;;;;;;;16.37;62.27;101500.03;4989959;28;20026;-74
2022/09/17 09:39:02;;;;;;;12.20;1.42;;;;;;;16.98;60.83;101496.44;4996311;28;20041;-74
2022/09/17 09:41:36;;;;;;;16.38;1.45;;;;;;;17.36;59.48;101505.84;4980142;28;20023;-75
2022/09/17 09:44:04;;;;;;;17.83;1.88;;;;;;;17.60;58.71;101497.00;4978146;28;20129;-73
2022/09/17 09:46:31;;;;;;;;;;;;;;;17.70;58.79;101502.03;4996725;28;20026;-74
2022/09/17 09:49:00;;;;;;;;;;;;;;;17.75;57.63;101499.50;4979174;28;19909;-74
2022/09/17 09:51:51;;;;;;;14.73;2.60;;;;;;;17.64;56.44;101501.00;4996417;28;19914;-74
2022/09/17 09:54:32;;;;;;;27.67;2.08;;;;;;;17.37;56.61;101493.91;4994937;28;20058;-73
2022/09/17 09:57:06;;;;;;;18.00;1.80;;;;;;;17.10;57.39;101496.66;4978295;28;20426;-74
2022/09/17 09:59:32;;;;;;;20.83;1.98;;;;;;;16.81;59.87;101504.16;4996263;28;20022;-74
2022/09/17 10:01:57;;;;;;;16.00;1.85;;;;;;;16.71;59.04;101503.69;4996210;28;20026;-74
2022/09/17 10:04:28;;;;;;;31.98;2.55;;;;;;;16.82;55.80;101494.94;4995149;28;20447;-73
2022/09/17 10:07:07;;;;;;;18.50;1.85;;;;;;;16.94;55.95;101495.19;4997238;28;20030;-74
2022/09/17 10:09:35;;;;;;;22.38;2.83;;;;;;;16.93;52.64;101506.25;4980722;28;20029;-73
2022/09/17 10:12:07;;;;;;;18.83;2.30;;;;;;;16.79;55.77;101503.53;5002042;28;20083;-73
2022/09/17 10:14:37;;;;;;;19.38;2.40;;;;;;;16.60;58.91;101526.88;5001296;28;20018;-73
2022/09/17 10:17:18;;;;;;;11.07;1.98;;;;;;;16.16;57.74;101519.19;4998966;28;20026;-73
2022/09/17 10:19:44;;;;;;;15.40;1.33;;;;;;;15.76;61.22;101517.09;4980373;28;20026;-74
2022/09/17 10:22:28;;;;;;;15.63;1.45;;;;;;;15.43;61.43;101511.44;5003555;28;20077;-73
2022/09/17 10:24:54;;;;;;;19.55;1.80;;;;;;;15.33;62.09;101525.34;4989430;28;20041;-72
2022/09/17 10:27:21;;;;;;;20.95;1.63;;;;;;;15.21;62.49;101505.22;5004653;28;20014;-73
2022/09/17 10:29:50;;;;;;;26.10;2.10;;;;;;;15.24;64.30;101512.13;4993699;28;20041;-72
2022/09/17 10:32:17;;;;;;;21.83;2.70;;;;;;;15.49;64.68;101516.06;4992669;28;20045;-74
2022/09/17 10:34:57;;;;;;;26.05;2.42;;;;;;;15.68;63.00;101519.94;5002825;28;20019;-73
2022/09/17 10:37:52;;;;;;;35.35;2.75;;;;;;;15.66;61.06;101505.75;5005661;28;20062;-73
2022/09/17 10:40:17;;;;;;;25.98;3.08;;;;;;;15.78;63.00;101516.91;4970972;28;20062;-74
2022/09/17 10:42:47;;;;;;;24.13;2.83;;;;;;;15.89;62.58;101510.91;4995066;28;20366;-73
2022/09/17 10:45:27;;;;;;;23.20;2.58;;;;;;;15.94;61.83;101505.72;4997386;28;20034;-74
2022/09/17 10:47:54;;;;;;;32.83;3.28;;;;;;;15.79;59.78;101505.84;4987064;28;20042;-72
2022/09/17 10:50:26;;;;;;;30.27;2.13;;;;;;;15.65;59.92;101519.53;4984399;28;20022;-74
2022/09/17 10:52:57;;;;;;;19.63;1.92;;;;;;;15.62;58.68;101506.34;5000331;28;20038;-73
2022/09/17 10:55:44;;;;;;;18.63;3.58;;;;;;;15.54;55.24;101502.75;5001095;28;20022;-74
2022/09/17 10:58:10;;;;;;;17.38;2.47;;;;;;;15.73;54.95;101503.13;4971512;28;20031;-73
2022/09/17 11:00:58;;;;;;;22.77;2.55;;;;;;;15.90;51.94;101488.16;4992370;28;20026;-73
2022/09/17 11:03:33;;;;;;;23.25;2.15;;;;;;;16.03;51.52;101500.97;5006234;28;20082;-73
2022/09/17 11:06:17;;;;;;;24.80;2.13;;;;;;;16.26;52.05;101495.22;4985792;28;20026;-74
2022/09/17 11:09:05;;;;;;;24.88;2.10;;;;;;;16.57;50.36;101491.97;5017813;28;20121;-73
2022/09/17 11:11:53;;;;;;;19.52;2.17;;;;;;;16.83;50.18;101496.63;4984733;28;20214;-74
2022/09/17 11:14:39;;;;;;;20.73;2.33;;;;;;;17.23;49.61;101502.09;4994157;28;20034;-73
2022/09/17 11:17:17;;;;;;;24.20;3.00;;;;;;;17.37;50.02;101504.78;4975308;28;20030;-74
2022/09/17 11:19:54;;;;;;;;;;;;;;;17.16;50.50;101506.69;4991033;28;20086;-73
2022/09/17 11:22:29;;;;;;;;;;;;;;;16.97;51.26;101504.81;4987787;28;19914;-73
2022/09/17 11:25:01;;;;;;;20.58;2.60;;;;;;;17.20;50.28;101494.34;4994819;28;19918;-75
2022/09/17 11:27:36;;;;;;;20.23;2.50;;;;;;;17.84;48.13;101502.84;5007842;28;20040;-75
2022/09/17 11:30:07;;;;;;;32.78;2.53;;;;;;;18.04;49.34;101500.91;5004588;28;20086;-74
2022/09/17 11:32:51;;;;;;;27.15;2.63;;;;;;;18.64;47.54;101530.56;4988926;28;20033;-74
2022/09/17 11:35:26;;;;;;;33.20;3.25;;;;;;;17.93;59.21;101545.13;5010579;28;20033;-75